sensor_id;sensor_type;location;lat;lon;timestamp;temperature;humidity
40291;DHT22;26000;48.304;13.626;2022-12-18T00:01:57;-0.30;99.90
40291;DHT22;26000;48.304;13.626;2022-12-18T00:04:25;-0.20;99.90
40291;DHT22;26000;48.304;13.626;2022-12-18T00:06:51;-0.20;99.90
40291;DHT22;26000;48.304;13.626;2022-12-18T00:09:17;-0.20;99.90
40291;DHT22;26000;48.304;13.626;2022-12-18T00:11:42;-0.10;99.90
40291;DHT22;26000;48.304;13.626;2022-12-18T00:14:09;-0.20;99.90
40291;DHT22;26000;48.304;13.626;2022-12-18T00:16:36;-0.20;99.90
40291;DHT22;26000;48.304;13.626;2022-12-18T00:19:02;-0.10;99.90
40291;DHT22;26000;48.304;13.626;2022-12-18T00:21:29;0.00;99.90
40291;DHT22;26000;48.304;13.626;2022-12-18T00:23:56;-0.10;99.90
40291;DHT22;26000;48.304;13.626;2022-12-18T00:26:24;-0.10;99.90
40291;DHT22;26000;48.304;13.626;2022-12-18T00:28:51;-0.30;99.90
40291;DHT22;26000;48.304;13.626;2022-12-18T00:31:20;-0.30;99.90
40291;DHT22;26000;48.304;13.626;2022-12-18T00:33:47;-0.30;99.90
40291;DHT22;26000;48.304;13.626;2022-12-18T00:36:19;-0.60;99.90
40291;DHT22;26000;48.304;13.626;2022-12-18T00:38:45;-0.40;99.90
40291;DHT22;26000;48.304;13.626;2022-12-18T00:41:13;-0.50;99.90
40291;DHT22;26000;48.304;13.626;2022-12-18T00:43:39;-0.70;99.90
40291;DHT22;26000;48.304;13.626;2022-12-18T00:46:06;-0.80;99.90
40291;DHT22;26000;48.304;13.626;2022-12-18T00:48:32;-0.70;99.90
40291;DHT22;26000;48.304;13.626;2022-12-18T00:50:58;-0.70;99.90
40291;DHT22;26000;48.304;13.626;2022-12-18T00:53:23;-0.50;99.90
40291;DHT22;26000;48.304;13.626;2022-12-18T00:55:49;-0.60;99.90
40291;DHT22;26000;48.304;13.626;2022-12-18T00:58:16;-0.50;99.90
40291;DHT22;26000;48.304;13.626;2022-12-18T01:00:42;-0.40;99.90
40291;DHT22;26000;48.304;13.626;2022-12-18T01:03:09;-0.50;99.90
40291;DHT22;26000;48.304;13.626;2022-12-18T01:05:39;-0.50;99.90
40291;DHT22;26000;48.304;13.626;2022-12-18T01:08:05;-0.70;99.90
40291;DHT22;26000;48.304;13.626;2022-12-18T01:10:31;-0.60;99.90
40291;DHT22;26000;48.304;13.626;2022-12-18T01:12:56;-0.50;99.90
40291;DHT22;26000;48.304;13.626;2022-12-18T01:15:22;-0.60;99.90
40291;DHT22;26000;48.304;13.626;2022-12-18T01:17:47;-0.60;99.90
40291;DHT22;26000;48.304;13.626;2022-12-18T01:20:13;-0.90;99.90
40291;DHT22;26000;48.304;13.626;2022-12-18T01:22:39;-1.10;99.90
40291;DHT22;26000;48.304;13.626;2022-12-18T01:25:05;-1.20;99.90
40291;DHT22;26000;48.304;13.626;2022-12-18T01:27:32;-1.20;99.90
40291;DHT22;26000;48.304;13.626;2022-12-18T01:29:58;-1.20;99.90
40291;DHT22;26000;48.304;13.626;2022-12-18T01:32:24;-1.40;99.90
40291;DHT22;26000;48.304;13.626;2022-12-18T01:34:49;-1.50;99.90
40291;DHT22;26000;48.304;13.626;2022-12-18T01:37:15;-1.70;99.90
40291;DHT22;26000;48.304;13.626;2022-12-18T01:39:40;-1.60;99.90
40291;DHT22;26000;48.304;13.626;2022-12-18T01:42:12;-1.60;99.90
40291;DHT22;26000;48.304;13.626;2022-12-18T01:50:43;-1.60;99.90
40291;DHT22;26000;48.304;13.626;2022-12-18T01:53:14;-1.50;99.90
40291;DHT22;26000;48.304;13.626;2022-12-18T01:55:46;-1.60;99.90
40291;DHT22;26000;48.304;13.626;2022-12-18T01:58:12;-1.60;99.90
40291;DHT22;26000;48.304;13.626;2022-12-18T02:00:38;-1.60;99.90
40291;DHT22;26000;48.304;13.626;2022-12-18T02:03:04;-1.50;99.90
40291;DHT22;26000;48.304;13.626;2022-12-18T02:14:21;-1.70;99.90
40291;DHT22;26000;48.304;13.626;2022-12-18T02:17:22;-1.70;99.90
40291;DHT22;26000;48.304;13.626;2022-12-18T02:27:50;-1.60;99.90
40291;DHT22;26000;48.304;13.626;2022-12-18T02:30:18;-1.50;99.90
40291;DHT22;26000;48.304;13.626;2022-12-18T02:32:48;-1.60;99.90
40291;DHT22;26000;48.304;13.626;2022-12-18T02:35:19;-1.50;99.90
40291;DHT22;26000;48.304;13.626;2022-12-18T02:37:47;-1.40;99.90
40291;DHT22;26000;48.304;13.626;2022-12-18T02:40:14;-1.40;99.90
40291;DHT22;26000;48.304;13.626;2022-12-18T02:42:41;-1.40;99.90
40291;DHT22;26000;48.304;13.626;2022-12-18T02:45:07;-1.40;99.90
40291;DHT22;26000;48.304;13.626;2022-12-18T02:47:36;-1.60;99.90
40291;DHT22;26000;48.304;13.626;2022-12-18T02:50:22;-1.60;99.90
40291;DHT22;26000;48.304;13.626;2022-12-18T02:59:09;-1.60;99.90
40291;DHT22;26000;48.304;13.626;2022-12-18T03:04:22;-1.60;99.90
40291;DHT22;26000;48.304;13.626;2022-12-18T03:06:55;-1.50;99.90
40291;DHT22;26000;48.304;13.626;2022-12-18T03:09:29;-1.50;99.90
40291;DHT22;26000;48.304;13.626;2022-12-18T03:12:02;-1.60;99.90
40291;DHT22;26000;48.304;13.626;2022-12-18T03:15:14;-1.60;99.90
40291;DHT22;26000;48.304;13.626;2022-12-18T03:17:46;-1.60;99.90
40291;DHT22;26000;48.304;13.626;2022-12-18T03:20:18;-1.60;99.90
40291;DHT22;26000;48.304;13.626;2022-12-18T03:22:47;-1.60;99.90
40291;DHT22;26000;48.304;13.626;2022-12-18T03:25:16;-1.60;99.90
40291;DHT22;26000;48.304;13.626;2022-12-18T03:27:47;-1.70;99.90
40291;DHT22;26000;48.304;13.626;2022-12-18T03:30:15;-2.00;99.90
40291;DHT22;26000;48.304;13.626;2022-12-18T03:33:04;-2.00;99.90
40291;DHT22;26000;48.304;13.626;2022-12-18T03:35:34;-2.00;99.90
40291;DHT22;26000;48.304;13.626;2022-12-18T03:38:01;-2.20;99.90
40291;DHT22;26000;48.304;13.626;2022-12-18T03:40:35;-2.30;99.90
40291;DHT22;26000;48.304;13.626;2022-12-18T03:43:11;-2.40;99.90
40291;DHT22;26000;48.304;13.626;2022-12-18T03:45:53;-2.50;99.90
40291;DHT22;26000;48.304;13.626;2022-12-18T03:48:41;-2.60;99.90
40291;DHT22;26000;48.304;13.626;2022-12-18T03:51:14;-2.30;99.90
40291;DHT22;26000;48.304;13.626;2022-12-18T03:56:22;-2.10;99.90
40291;DHT22;26000;48.304;13.626;2022-12-18T03:58:48;-2.40;99.90
40291;DHT22;26000;48.304;13.626;2022-12-18T04:01:17;-2.30;99.90
40291;DHT22;26000;48.304;13.626;2022-12-18T04:03:45;-2.30;99.90
40291;DHT22;26000;48.304;13.626;2022-12-18T04:06:12;-2.10;99.90
40291;DHT22;26000;48.304;13.626;2022-12-18T04:08:39;-2.10;99.90
40291;DHT22;26000;48.304;13.626;2022-12-18T04:11:05;-1.90;99.90
40291;DHT22;26000;48.304;13.626;2022-12-18T04:13:36;-1.80;99.90
40291;DHT22;26000;48.304;13.626;2022-12-18T04:16:02;-1.60;99.90
40291;DHT22;26000;48.304;13.626;2022-12-18T04:18:27;-1.80;99.90
40291;DHT22;26000;48.304;13.626;2022-12-18T04:20:53;-2.20;99.90
40291;DHT22;26000;48.304;13.626;2022-12-18T04:23:19;-2.10;99.90
40291;DHT22;26000;48.304;13.626;2022-12-18T04:25:46;-2.00;99.90
40291;DHT22;26000;48.304;13.626;2022-12-18T04:28:12;-1.90;99.90
40291;DHT22;26000;48.304;13.626;2022-12-18T04:30:37;-1.80;99.90
40291;DHT22;26000;48.304;13.626;2022-12-18T04:33:03;-1.90;99.90
40291;DHT22;26000;48.304;13.626;2022-12-18T04:35:29;-2.10;99.90
40291;DHT22;26000;48.304;13.626;2022-12-18T04:37:54;-2.00;99.90
40291;DHT22;26000;48.304;13.626;2022-12-18T04:40:20;-2.00;99.90
40291;DHT22;26000;48.304;13.626;2022-12-18T04:42:46;-1.90;99.90
40291;DHT22;26000;48.304;13.626;2022-12-18T04:45:12;-1.90;99.90
40291;DHT22;26000;48.304;13.626;2022-12-18T04:47:37;-1.90;99.90
40291;DHT22;26000;48.304;13.626;2022-12-18T04:50:03;-1.90;99.90
40291;DHT22;26000;48.304;13.626;2022-12-18T04:52:29;-2.00;99.90
40291;DHT22;26000;48.304;13.626;2022-12-18T04:54:55;-2.20;99.90
40291;DHT22;26000;48.304;13.626;2022-12-18T04:57:20;-2.30;99.90
40291;DHT22;26000;48.304;13.626;2022-12-18T04:59:46;-2.30;99.90
40291;DHT22;26000;48.304;13.626;2022-12-18T05:02:11;-2.10;99.90
40291;DHT22;26000;48.304;13.626;2022-12-18T05:04:37;-2.20;99.90
40291;DHT22;26000;48.304;13.626;2022-12-18T05:07:03;-2.40;99.90
40291;DHT22;26000;48.304;13.626;2022-12-18T05:09:28;-2.40;99.90
40291;DHT22;26000;48.304;13.626;2022-12-18T05:11:54;-2.60;99.90
40291;DHT22;26000;48.304;13.626;2022-12-18T05:14:19;-2.60;99.90
40291;DHT22;26000;48.304;13.626;2022-12-18T05:16:45;-2.50;99.90
40291;DHT22;26000;48.304;13.626;2022-12-18T05:19:11;-2.50;99.90
40291;DHT22;26000;48.304;13.626;2022-12-18T05:21:36;-2.60;99.90
40291;DHT22;26000;48.304;13.626;2022-12-18T05:24:02;-2.80;99.90
40291;DHT22;26000;48.304;13.626;2022-12-18T05:26:28;-2.80;99.90
40291;DHT22;26000;48.304;13.626;2022-12-18T05:28:53;-2.90;99.90
40291;DHT22;26000;48.304;13.626;2022-12-18T05:31:19;-2.70;99.90
40291;DHT22;26000;48.304;13.626;2022-12-18T05:33:44;-2.60;99.90
40291;DHT22;26000;48.304;13.626;2022-12-18T05:36:10;-2.60;99.90
40291;DHT22;26000;48.304;13.626;2022-12-18T05:38:38;-2.70;99.90
40291;DHT22;26000;48.304;13.626;2022-12-18T05:41:05;-2.60;99.90
40291;DHT22;26000;48.304;13.626;2022-12-18T05:43:30;-2.60;99.90
40291;DHT22;26000;48.304;13.626;2022-12-18T05:45:56;-2.50;99.90
40291;DHT22;26000;48.304;13.626;2022-12-18T05:48:23;-2.40;99.90
40291;DHT22;26000;48.304;13.626;2022-12-18T05:50:49;-2.40;99.90
40291;DHT22;26000;48.304;13.626;2022-12-18T05:53:17;-2.20;99.90
40291;DHT22;26000;48.304;13.626;2022-12-18T05:55:44;-2.20;99.90
40291;DHT22;26000;48.304;13.626;2022-12-18T05:58:11;-2.30;99.90
40291;DHT22;26000;48.304;13.626;2022-12-18T06:00:39;-2.10;99.90
40291;DHT22;26000;48.304;13.626;2022-12-18T06:03:09;-2.20;99.90
40291;DHT22;26000;48.304;13.626;2022-12-18T06:05:44;-2.20;99.90
40291;DHT22;26000;48.304;13.626;2022-12-18T06:08:11;-2.40;99.90
40291;DHT22;26000;48.304;13.626;2022-12-18T06:10:38;-2.70;99.90
40291;DHT22;26000;48.304;13.626;2022-12-18T06:13:05;-2.60;99.90
40291;DHT22;26000;48.304;13.626;2022-12-18T06:15:32;-2.60;99.90
40291;DHT22;26000;48.304;13.626;2022-12-18T06:17:58;-2.60;99.90
40291;DHT22;26000;48.304;13.626;2022-12-18T06:20:23;-2.50;99.90
40291;DHT22;26000;48.304;13.626;2022-12-18T06:22:49;-2.50;99.90
40291;DHT22;26000;48.304;13.626;2022-12-18T06:25:15;-2.50;99.90
40291;DHT22;26000;48.304;13.626;2022-12-18T06:27:40;-2.60;99.90
40291;DHT22;26000;48.304;13.626;2022-12-18T06:30:07;-2.80;99.90
40291;DHT22;26000;48.304;13.626;2022-12-18T06:32:33;-3.00;99.90
40291;DHT22;26000;48.304;13.626;2022-12-18T06:34:58;-3.10;99.90
40291;DHT22;26000;48.304;13.626;2022-12-18T06:37:24;-3.00;99.90
40291;DHT22;26000;48.304;13.626;2022-12-18T06:39:51;-3.00;99.90
40291;DHT22;26000;48.304;13.626;2022-12-18T06:42:17;-3.00;99.90
40291;DHT22;26000;48.304;13.626;2022-12-18T06:44:43;-2.90;99.90
40291;DHT22;26000;48.304;13.626;2022-12-18T06:47:09;-3.00;99.90
40291;DHT22;26000;48.304;13.626;2022-12-18T06:49:34;-2.90;99.90
40291;DHT22;26000;48.304;13.626;2022-12-18T06:52:00;-2.90;99.90
40291;DHT22;26000;48.304;13.626;2022-12-18T06:54:25;-2.90;99.90
40291;DHT22;26000;48.304;13.626;2022-12-18T06:56:51;-2.70;99.90
40291;DHT22;26000;48.304;13.626;2022-12-18T06:59:16;-2.70;99.90
40291;DHT22;26000;48.304;13.626;2022-12-18T07:01:42;-2.60;99.90
40291;DHT22;26000;48.304;13.626;2022-12-18T07:04:08;-2.50;99.90
40291;DHT22;26000;48.304;13.626;2022-12-18T07:06:33;-2.40;99.90
40291;DHT22;26000;48.304;13.626;2022-12-18T07:08:59;-2.30;99.90
40291;DHT22;26000;48.304;13.626;2022-12-18T07:11:25;-2.40;99.90
40291;DHT22;26000;48.304;13.626;2022-12-18T07:13:51;-2.50;99.90
40291;DHT22;26000;48.304;13.626;2022-12-18T07:16:19;-2.60;99.90
40291;DHT22;26000;48.304;13.626;2022-12-18T07:18:45;-2.50;99.90
40291;DHT22;26000;48.304;13.626;2022-12-18T07:21:14;-2.50;99.90
40291;DHT22;26000;48.304;13.626;2022-12-18T07:23:40;-2.40;99.90
40291;DHT22;26000;48.304;13.626;2022-12-18T07:26:08;-2.30;99.90
40291;DHT22;26000;48.304;13.626;2022-12-18T07:28:35;-2.30;99.90
40291;DHT22;26000;48.304;13.626;2022-12-18T07:31:05;-2.50;99.90
40291;DHT22;26000;48.304;13.626;2022-12-18T07:33:32;-2.50;99.90
40291;DHT22;26000;48.304;13.626;2022-12-18T07:35:59;-2.40;99.90
40291;DHT22;26000;48.304;13.626;2022-12-18T07:38:24;-2.30;99.90
40291;DHT22;26000;48.304;13.626;2022-12-18T07:40:50;-2.20;99.90
40291;DHT22;26000;48.304;13.626;2022-12-18T07:43:16;-2.30;99.90
40291;DHT22;26000;48.304;13.626;2022-12-18T07:45:42;-2.20;99.90
40291;DHT22;26000;48.304;13.626;2022-12-18T07:48:08;-2.10;99.90
40291;DHT22;26000;48.304;13.626;2022-12-18T07:50:33;-2.00;99.90
40291;DHT22;26000;48.304;13.626;2022-12-18T07:52:59;-2.20;99.90
40291;DHT22;26000;48.304;13.626;2022-12-18T07:55:29;-1.90;99.90
40291;DHT22;26000;48.304;13.626;2022-12-18T07:57:55;-2.00;99.90
40291;DHT22;26000;48.304;13.626;2022-12-18T08:00:20;-2.30;99.90
40291;DHT22;26000;48.304;13.626;2022-12-18T08:02:46;-2.20;99.90
40291;DHT22;26000;48.304;13.626;2022-12-18T08:05:12;-2.00;99.90
40291;DHT22;26000;48.304;13.626;2022-12-18T08:07:39;-2.20;99.90
40291;DHT22;26000;48.304;13.626;2022-12-18T08:10:05;-2.10;99.90
40291;DHT22;26000;48.304;13.626;2022-12-18T08:12:31;-2.20;99.90
40291;DHT22;26000;48.304;13.626;2022-12-18T08:14:57;-2.10;99.90
40291;DHT22;26000;48.304;13.626;2022-12-18T08:17:22;-2.30;99.90
40291;DHT22;26000;48.304;13.626;2022-12-18T08:19:48;-2.30;99.90
40291;DHT22;26000;48.304;13.626;2022-12-18T08:22:14;-2.30;99.90
40291;DHT22;26000;48.304;13.626;2022-12-18T08:24:39;-2.30;99.90
40291;DHT22;26000;48.304;13.626;2022-12-18T08:27:05;-2.20;99.90
40291;DHT22;26000;48.304;13.626;2022-12-18T08:29:30;-2.10;99.90
40291;DHT22;26000;48.304;13.626;2022-12-18T08:32:22;-2.00;99.90
40291;DHT22;26000;48.304;13.626;2022-12-18T08:34:48;-2.20;99.90
40291;DHT22;26000;48.304;13.626;2022-12-18T08:37:13;-2.10;99.90
40291;DHT22;26000;48.304;13.626;2022-12-18T08:39:39;-2.20;99.90
40291;DHT22;26000;48.304;13.626;2022-12-18T08:42:04;-2.20;99.90
40291;DHT22;26000;48.304;13.626;2022-12-18T08:44:48;-2.20;99.90
40291;DHT22;26000;48.304;13.626;2022-12-18T08:47:14;-2.30;99.90
40291;DHT22;26000;48.304;13.626;2022-12-18T08:49:40;-2.50;99.90
40291;DHT22;26000;48.304;13.626;2022-12-18T08:52:06;-2.50;99.90
40291;DHT22;26000;48.304;13.626;2022-12-18T08:54:31;-2.40;99.90
40291;DHT22;26000;48.304;13.626;2022-12-18T08:56:57;-2.30;99.90
40291;DHT22;26000;48.304;13.626;2022-12-18T08:59:22;-2.50;99.90
40291;DHT22;26000;48.304;13.626;2022-12-18T09:01:48;-2.80;99.90
40291;DHT22;26000;48.304;13.626;2022-12-18T09:04:14;-2.90;99.90
40291;DHT22;26000;48.304;13.626;2022-12-18T09:06:40;-2.70;99.90
40291;DHT22;26000;48.304;13.626;2022-12-18T09:09:05;-2.60;99.90
40291;DHT22;26000;48.304;13.626;2022-12-18T09:11:32;-2.90;99.90
40291;DHT22;26000;48.304;13.626;2022-12-18T09:13:59;-2.70;99.90
40291;DHT22;26000;48.304;13.626;2022-12-18T09:16:26;-2.50;99.90
40291;DHT22;26000;48.304;13.626;2022-12-18T09:18:56;-2.50;99.90
40291;DHT22;26000;48.304;13.626;2022-12-18T09:21:25;-2.60;99.90
40291;DHT22;26000;48.304;13.626;2022-12-18T09:23:55;-2.40;99.90
40291;DHT22;26000;48.304;13.626;2022-12-18T09:26:25;-2.60;99.90
40291;DHT22;26000;48.304;13.626;2022-12-18T09:28:51;-2.50;99.90
40291;DHT22;26000;48.304;13.626;2022-12-18T09:31:19;-2.60;99.90
40291;DHT22;26000;48.304;13.626;2022-12-18T09:33:45;-2.60;99.90
40291;DHT22;26000;48.304;13.626;2022-12-18T09:36:13;-2.60;99.90
40291;DHT22;26000;48.304;13.626;2022-12-18T09:38:38;-2.50;99.90
40291;DHT22;26000;48.304;13.626;2022-12-18T09:44:00;-2.40;99.90
40291;DHT22;26000;48.304;13.626;2022-12-18T09:46:36;-2.60;99.90
40291;DHT22;26000;48.304;13.626;2022-12-18T09:49:07;-2.70;99.90
40291;DHT22;26000;48.304;13.626;2022-12-18T09:51:46;-2.60;99.90
40291;DHT22;26000;48.304;13.626;2022-12-18T09:54:20;-2.40;99.90
40291;DHT22;26000;48.304;13.626;2022-12-18T09:56:47;-2.20;99.90
40291;DHT22;26000;48.304;13.626;2022-12-18T10:01:45;-2.00;99.90
40291;DHT22;26000;48.304;13.626;2022-12-18T10:04:11;-1.90;99.90
40291;DHT22;26000;48.304;13.626;2022-12-18T10:06:48;-2.00;99.90
40291;DHT22;26000;48.304;13.626;2022-12-18T10:09:29;-2.00;99.90
40291;DHT22;26000;48.304;13.626;2022-12-18T10:12:23;-2.20;99.90
40291;DHT22;26000;48.304;13.626;2022-12-18T10:14:57;-1.90;99.90
40291;DHT22;26000;48.304;13.626;2022-12-18T10:20:10;-1.40;99.90
40291;DHT22;26000;48.304;13.626;2022-12-18T10:28:15;-1.20;99.90
40291;DHT22;26000;48.304;13.626;2022-12-18T10:30:43;-1.10;99.90
40291;DHT22;26000;48.304;13.626;2022-12-18T10:33:17;-1.00;99.90
40291;DHT22;26000;48.304;13.626;2022-12-18T10:35:44;-1.40;99.90
40291;DHT22;26000;48.304;13.626;2022-12-18T10:41:02;-1.10;99.90
40291;DHT22;26000;48.304;13.626;2022-12-18T10:43:30;-1.40;99.90
40291;DHT22;26000;48.304;13.626;2022-12-18T10:48:24;-1.40;99.90
40291;DHT22;26000;48.304;13.626;2022-12-18T10:50:51;-1.30;99.90
40291;DHT22;26000;48.304;13.626;2022-12-18T10:53:26;-1.40;99.90
40291;DHT22;26000;48.304;13.626;2022-12-18T10:55:54;-1.40;99.90
40291;DHT22;26000;48.304;13.626;2022-12-18T11:01:05;-1.80;99.90
40291;DHT22;26000;48.304;13.626;2022-12-18T11:04:22;-1.80;99.90
40291;DHT22;26000;48.304;13.626;2022-12-18T11:06:23;-1.60;99.90
40291;DHT22;26000;48.304;13.626;2022-12-18T11:11:27;-1.20;99.90
40291;DHT22;26000;48.304;13.626;2022-12-18T11:14:15;-1.10;99.90
40291;DHT22;26000;48.304;13.626;2022-12-18T11:16:49;-0.90;99.90
40291;DHT22;26000;48.304;13.626;2022-12-18T11:19:37;-0.80;99.90
40291;DHT22;26000;48.304;13.626;2022-12-18T11:22:23;-0.60;99.90
40291;DHT22;26000;48.304;13.626;2022-12-18T11:27:26;-0.60;99.90
40291;DHT22;26000;48.304;13.626;2022-12-18T11:29:52;-0.70;99.90
40291;DHT22;26000;48.304;13.626;2022-12-18T11:33:00;-0.80;99.90
40291;DHT22;26000;48.304;13.626;2022-12-18T11:35:50;-0.80;99.90
40291;DHT22;26000;48.304;13.626;2022-12-18T11:40:50;-1.10;99.90
40291;DHT22;26000;48.304;13.626;2022-12-18T11:43:27;-0.90;99.90
40291;DHT22;26000;48.304;13.626;2022-12-18T11:46:04;-1.10;99.90
40291;DHT22;26000;48.304;13.626;2022-12-18T11:49:18;-1.30;99.90
40291;DHT22;26000;48.304;13.626;2022-12-18T11:54:14;-0.90;99.90
40291;DHT22;26000;48.304;13.626;2022-12-18T11:56:48;-1.00;99.90
40291;DHT22;26000;48.304;13.626;2022-12-18T12:11:06;-0.70;99.90
40291;DHT22;26000;48.304;13.626;2022-12-18T12:14:01;-0.60;99.90
40291;DHT22;26000;48.304;13.626;2022-12-18T12:21:42;-0.70;99.90
40291;DHT22;26000;48.304;13.626;2022-12-18T12:27:08;-0.60;99.90
40291;DHT22;26000;48.304;13.626;2022-12-18T12:35:22;-0.80;99.90
40291;DHT22;26000;48.304;13.626;2022-12-18T12:38:11;-0.70;99.90
40291;DHT22;26000;48.304;13.626;2022-12-18T12:40:44;-0.50;99.90
40291;DHT22;26000;48.304;13.626;2022-12-18T12:43:27;-0.60;99.90
40291;DHT22;26000;48.304;13.626;2022-12-18T12:46:10;-0.50;99.90
40291;DHT22;26000;48.304;13.626;2022-12-18T12:48:40;-0.50;99.90
40291;DHT22;26000;48.304;13.626;2022-12-18T12:51:21;-0.70;99.90
40291;DHT22;26000;48.304;13.626;2022-12-18T12:53:49;-0.80;99.90
40291;DHT22;26000;48.304;13.626;2022-12-18T12:56:17;-1.20;99.90
40291;DHT22;26000;48.304;13.626;2022-12-18T13:01:41;-0.90;99.90
40291;DHT22;26000;48.304;13.626;2022-12-18T13:07:00;-0.90;99.90
40291;DHT22;26000;48.304;13.626;2022-12-18T13:09:32;-1.10;99.90
40291;DHT22;26000;48.304;13.626;2022-12-18T13:12:07;-1.10;99.90
40291;DHT22;26000;48.304;13.626;2022-12-18T13:15:12;-1.10;99.90
40291;DHT22;26000;48.304;13.626;2022-12-18T13:17:39;-1.40;99.90
40291;DHT22;26000;48.304;13.626;2022-12-18T13:20:09;-1.40;99.90
40291;DHT22;26000;48.304;13.626;2022-12-18T13:28:06;-1.10;99.90
40291;DHT22;26000;48.304;13.626;2022-12-18T13:38:23;-1.00;99.90
40291;DHT22;26000;48.304;13.626;2022-12-18T13:51:17;-0.80;99.90
40291;DHT22;26000;48.304;13.626;2022-12-18T13:53:50;-0.80;99.90
40291;DHT22;26000;48.304;13.626;2022-12-18T13:56:17;-0.80;99.90
40291;DHT22;26000;48.304;13.626;2022-12-18T13:58:44;-0.80;99.90
40291;DHT22;26000;48.304;13.626;2022-12-18T14:01:23;-0.90;99.90
40291;DHT22;26000;48.304;13.626;2022-12-18T14:03:48;-0.90;99.90
40291;DHT22;26000;48.304;13.626;2022-12-18T14:06:14;-1.00;99.90
40291;DHT22;26000;48.304;13.626;2022-12-18T14:08:42;-1.10;99.90
40291;DHT22;26000;48.304;13.626;2022-12-18T14:11:19;-1.10;99.90
40291;DHT22;26000;48.304;13.626;2022-12-18T14:13:47;-1.20;99.90
40291;DHT22;26000;48.304;13.626;2022-12-18T14:16:14;-1.30;99.90
40291;DHT22;26000;48.304;13.626;2022-12-18T14:18:47;-1.30;99.90
40291;DHT22;26000;48.304;13.626;2022-12-18T14:21:22;-1.20;99.90
40291;DHT22;26000;48.304;13.626;2022-12-18T14:23:49;-1.30;99.90
40291;DHT22;26000;48.304;13.626;2022-12-18T14:26:27;-1.30;99.90
40291;DHT22;26000;48.304;13.626;2022-12-18T14:28:55;-1.30;99.90
40291;DHT22;26000;48.304;13.626;2022-12-18T14:31:26;-1.20;99.90
40291;DHT22;26000;48.304;13.626;2022-12-18T14:33:52;-1.30;99.90
40291;DHT22;26000;48.304;13.626;2022-12-18T14:36:21;-1.40;99.90
40291;DHT22;26000;48.304;13.626;2022-12-18T14:38:55;-1.40;99.90
40291;DHT22;26000;48.304;13.626;2022-12-18T14:41:22;-1.50;99.90
40291;DHT22;26000;48.304;13.626;2022-12-18T14:43:50;-1.40;99.90
40291;DHT22;26000;48.304;13.626;2022-12-18T14:46:35;-1.40;99.90
40291;DHT22;26000;48.304;13.626;2022-12-18T14:51:56;-1.40;99.90
40291;DHT22;26000;48.304;13.626;2022-12-18T14:54:27;-1.70;99.90
40291;DHT22;26000;48.304;13.626;2022-12-18T14:59:44;-1.70;99.90
40291;DHT22;26000;48.304;13.626;2022-12-18T15:02:20;-1.60;99.90
40291;DHT22;26000;48.304;13.626;2022-12-18T15:04:47;-1.60;99.90
40291;DHT22;26000;48.304;13.626;2022-12-18T15:10:13;-1.60;99.90
40291;DHT22;26000;48.304;13.626;2022-12-18T15:12:43;-1.50;99.90
40291;DHT22;26000;48.304;13.626;2022-12-18T15:25:43;-2.10;99.90
40291;DHT22;26000;48.304;13.626;2022-12-18T15:28:34;-2.00;99.90
40291;DHT22;26000;48.304;13.626;2022-12-18T15:34:01;-2.20;99.90
40291;DHT22;26000;48.304;13.626;2022-12-18T15:36:29;-2.10;99.90
40291;DHT22;26000;48.304;13.626;2022-12-18T15:38:57;-2.10;99.90
40291;DHT22;26000;48.304;13.626;2022-12-18T15:41:23;-2.20;99.90
40291;DHT22;26000;48.304;13.626;2022-12-18T15:43:51;-2.10;99.90
40291;DHT22;26000;48.304;13.626;2022-12-18T15:46:19;-2.10;99.90
40291;DHT22;26000;48.304;13.626;2022-12-18T15:48:53;-2.00;99.90
40291;DHT22;26000;48.304;13.626;2022-12-18T15:51:29;-2.00;99.90
40291;DHT22;26000;48.304;13.626;2022-12-18T15:53:56;-2.00;99.90
40291;DHT22;26000;48.304;13.626;2022-12-18T15:56:23;-2.10;99.90
40291;DHT22;26000;48.304;13.626;2022-12-18T15:59:13;-2.20;99.90
40291;DHT22;26000;48.304;13.626;2022-12-18T16:01:41;-2.40;99.90
40291;DHT22;26000;48.304;13.626;2022-12-18T16:04:10;-2.40;99.90
40291;DHT22;26000;48.304;13.626;2022-12-18T16:06:36;-2.40;99.90
40291;DHT22;26000;48.304;13.626;2022-12-18T16:09:02;-2.30;99.90
40291;DHT22;26000;48.304;13.626;2022-12-18T16:11:29;-2.40;99.90
40291;DHT22;26000;48.304;13.626;2022-12-18T16:14:36;-2.30;99.90
40291;DHT22;26000;48.304;13.626;2022-12-18T16:17:08;-2.10;99.90
40291;DHT22;26000;48.304;13.626;2022-12-18T16:19:34;-2.00;99.90
40291;DHT22;26000;48.304;13.626;2022-12-18T16:22:00;-2.10;99.90
40291;DHT22;26000;48.304;13.626;2022-12-18T16:24:28;-2.20;99.90
40291;DHT22;26000;48.304;13.626;2022-12-18T16:26:56;-2.00;99.90
40291;DHT22;26000;48.304;13.626;2022-12-18T16:29:23;-1.90;99.90
40291;DHT22;26000;48.304;13.626;2022-12-18T16:31:59;-1.90;99.90
40291;DHT22;26000;48.304;13.626;2022-12-18T16:34:28;-2.00;99.90
40291;DHT22;26000;48.304;13.626;2022-12-18T16:37:04;-2.10;99.90
40291;DHT22;26000;48.304;13.626;2022-12-18T16:39:31;-2.20;99.90
40291;DHT22;26000;48.304;13.626;2022-12-18T16:41:58;-2.30;99.90
40291;DHT22;26000;48.304;13.626;2022-12-18T16:44:24;-2.30;99.90
40291;DHT22;26000;48.304;13.626;2022-12-18T16:46:50;-2.00;99.90
40291;DHT22;26000;48.304;13.626;2022-12-18T16:49:16;-2.30;99.90
40291;DHT22;26000;48.304;13.626;2022-12-18T16:51:42;-2.20;99.90
40291;DHT22;26000;48.304;13.626;2022-12-18T16:54:09;-2.30;99.90
40291;DHT22;26000;48.304;13.626;2022-12-18T16:56:35;-2.10;99.90
40291;DHT22;26000;48.304;13.626;2022-12-18T16:59:02;-1.40;99.90
40291;DHT22;26000;48.304;13.626;2022-12-18T17:01:29;-0.40;99.90
40291;DHT22;26000;48.304;13.626;2022-12-18T17:04:03;0.80;99.90
40291;DHT22;26000;48.304;13.626;2022-12-18T17:06:32;-0.20;99.90
40291;DHT22;26000;48.304;13.626;2022-12-18T17:08:58;-1.10;99.90
40291;DHT22;26000;48.304;13.626;2022-12-18T17:11:25;-1.40;99.90
40291;DHT22;26000;48.304;13.626;2022-12-18T17:13:51;-1.50;99.90
40291;DHT22;26000;48.304;13.626;2022-12-18T17:16:17;-1.70;99.90
40291;DHT22;26000;48.304;13.626;2022-12-18T17:18:42;-1.90;99.90
40291;DHT22;26000;48.304;13.626;2022-12-18T17:21:09;-2.10;99.90
40291;DHT22;26000;48.304;13.626;2022-12-18T17:23:35;-2.20;99.90
40291;DHT22;26000;48.304;13.626;2022-12-18T17:26:02;-2.30;99.90
40291;DHT22;26000;48.304;13.626;2022-12-18T17:28:29;-2.40;99.90
40291;DHT22;26000;48.304;13.626;2022-12-18T17:30:55;-2.30;99.90
40291;DHT22;26000;48.304;13.626;2022-12-18T17:33:22;-2.20;99.90
40291;DHT22;26000;48.304;13.626;2022-12-18T17:35:48;-2.20;99.90
40291;DHT22;26000;48.304;13.626;2022-12-18T17:38:14;-2.20;99.90
40291;DHT22;26000;48.304;13.626;2022-12-18T17:40:40;-2.10;99.90
40291;DHT22;26000;48.304;13.626;2022-12-18T17:43:09;-2.10;99.90
40291;DHT22;26000;48.304;13.626;2022-12-18T17:45:36;-2.40;99.90
40291;DHT22;26000;48.304;13.626;2022-12-18T17:48:04;-2.20;99.90
40291;DHT22;26000;48.304;13.626;2022-12-18T17:50:31;-2.20;99.90
40291;DHT22;26000;48.304;13.626;2022-12-18T17:52:57;-2.20;99.90